sensor_id;sensor_type;location;lat;lon;timestamp;temperature;humidity
3980;DHT22;2004;52.452;13.120;2022-12-29T00:02:12;7.80;99.90
3980;DHT22;2004;52.452;13.120;2022-12-29T00:10:03;7.90;99.90
3980;DHT22;2004;52.452;13.120;2022-12-29T00:17:54;7.90;99.90
3980;DHT22;2004;52.452;13.120;2022-12-29T00:25:44;7.90;99.90
3980;DHT22;2004;52.452;13.120;2022-12-29T00:33:54;7.90;99.90
3980;DHT22;2004;52.452;13.120;2022-12-29T00:42:05;8.00;99.90
3980;DHT22;2004;52.452;13.120;2022-12-29T00:50:14;7.90;99.90
3980;DHT22;2004;52.452;13.120;2022-12-29T00:58:05;7.90;99.90
3980;DHT22;2004;52.452;13.120;2022-12-29T01:05:59;8.00;99.90
3980;DHT22;2004;52.452;13.120;2022-12-29T01:13:53;8.00;99.90
3980;DHT22;2004;52.452;13.120;2022-12-29T01:21:45;8.00;99.90
3980;DHT22;2004;52.452;13.120;2022-12-29T01:29:35;8.10;99.90
3980;DHT22;2004;52.452;13.120;2022-12-29T01:37:26;8.10;99.90
3980;DHT22;2004;52.452;13.120;2022-12-29T01:45:18;8.10;99.90
3980;DHT22;2004;52.452;13.120;2022-12-29T01:53:18;8.10;99.90
3980;DHT22;2004;52.452;13.120;2022-12-29T02:01:10;8.00;99.90
3980;DHT22;2004;52.452;13.120;2022-12-29T02:09:01;8.00;99.90
3980;DHT22;2004;52.452;13.120;2022-12-29T02:17:19;8.00;99.90
3980;DHT22;2004;52.452;13.120;2022-12-29T02:34:04;8.10;99.90
3980;DHT22;2004;52.452;13.120;2022-12-29T02:49:53;8.20;99.90
3980;DHT22;2004;52.452;13.120;2022-12-29T02:57:47;8.40;99.90
3980;DHT22;2004;52.452;13.120;2022-12-29T03:13:52;8.50;99.90
3980;DHT22;2004;52.452;13.120;2022-12-29T03:22:12;8.60;99.90
3980;DHT22;2004;52.452;13.120;2022-12-29T03:30:21;8.70;99.90
3980;DHT22;2004;52.452;13.120;2022-12-29T03:38:21;8.80;99.90
3980;DHT22;2004;52.452;13.120;2022-12-29T03:46:13;8.90;99.90
3980;DHT22;2004;52.452;13.120;2022-12-29T03:54:04;9.00;99.90
3980;DHT22;2004;52.452;13.120;2022-12-29T04:01:55;9.00;99.90
3980;DHT22;2004;52.452;13.120;2022-12-29T04:09:46;9.00;99.90
3980;DHT22;2004;52.452;13.120;2022-12-29T04:17:38;9.10;99.90
3980;DHT22;2004;52.452;13.120;2022-12-29T04:25:29;9.10;99.90
3980;DHT22;2004;52.452;13.120;2022-12-29T04:33:21;9.10;99.90
3980;DHT22;2004;52.452;13.120;2022-12-29T04:41:12;9.20;99.90
3980;DHT22;2004;52.452;13.120;2022-12-29T04:49:03;9.20;99.90
3980;DHT22;2004;52.452;13.120;2022-12-29T04:56:59;9.30;99.90
3980;DHT22;2004;52.452;13.120;2022-12-29T05:04:49;9.30;99.90
3980;DHT22;2004;52.452;13.120;2022-12-29T05:12:40;9.40;99.90
3980;DHT22;2004;52.452;13.120;2022-12-29T05:20:31;9.40;99.90
3980;DHT22;2004;52.452;13.120;2022-12-29T05:28:21;9.50;99.90
3980;DHT22;2004;52.452;13.120;2022-12-29T05:36:12;9.60;99.90
3980;DHT22;2004;52.452;13.120;2022-12-29T05:44:03;9.70;99.90
3980;DHT22;2004;52.452;13.120;2022-12-29T05:51:53;9.70;99.90
3980;DHT22;2004;52.452;13.120;2022-12-29T05:59:44;9.80;99.90
3980;DHT22;2004;52.452;13.120;2022-12-29T06:07:34;9.80;99.90
3980;DHT22;2004;52.452;13.120;2022-12-29T06:15:25;9.90;99.90
3980;DHT22;2004;52.452;13.120;2022-12-29T06:23:16;9.90;99.90
3980;DHT22;2004;52.452;13.120;2022-12-29T06:31:10;9.90;99.90
3980;DHT22;2004;52.452;13.120;2022-12-29T06:39:01;9.90;99.90
3980;DHT22;2004;52.452;13.120;2022-12-29T06:46:53;10.00;99.90
3980;DHT22;2004;52.452;13.120;2022-12-29T06:54:44;10.00;99.90
3980;DHT22;2004;52.452;13.120;2022-12-29T07:02:34;10.00;99.90
3980;DHT22;2004;52.452;13.120;2022-12-29T07:10:25;10.00;99.90
3980;DHT22;2004;52.452;13.120;2022-12-29T07:18:16;9.90;99.90
3980;DHT22;2004;52.452;13.120;2022-12-29T07:26:08;9.90;99.90
3980;DHT22;2004;52.452;13.120;2022-12-29T07:34:00;9.90;99.90
3980;DHT22;2004;52.452;13.120;2022-12-29T07:41:50;9.90;99.90
3980;DHT22;2004;52.452;13.120;2022-12-29T07:49:41;9.80;99.90
3980;DHT22;2004;52.452;13.120;2022-12-29T07:57:31;9.90;99.90
3980;DHT22;2004;52.452;13.120;2022-12-29T08:05:22;9.90;99.90
3980;DHT22;2004;52.452;13.120;2022-12-29T08:13:13;9.90;99.90
3980;DHT22;2004;52.452;13.120;2022-12-29T08:21:05;10.00;99.90
3980;DHT22;2004;52.452;13.120;2022-12-29T08:28:56;10.00;99.90
3980;DHT22;2004;52.452;13.120;2022-12-29T08:36:47;9.90;99.90
3980;DHT22;2004;52.452;13.120;2022-12-29T08:44:38;9.90;99.90
3980;DHT22;2004;52.452;13.120;2022-12-29T08:52:29;9.90;99.90
3980;DHT22;2004;52.452;13.120;2022-12-29T09:00:21;9.90;99.90
3980;DHT22;2004;52.452;13.120;2022-12-29T09:08:13;10.00;99.90
3980;DHT22;2004;52.452;13.120;2022-12-29T09:16:04;10.00;99.90
3980;DHT22;2004;52.452;13.120;2022-12-29T09:23:54;10.00;99.90
3980;DHT22;2004;52.452;13.120;2022-12-29T09:31:45;10.10;99.90
3980;DHT22;2004;52.452;13.120;2022-12-29T09:39:35;10.20;99.90
3980;DHT22;2004;52.452;13.120;2022-12-29T09:47:28;10.30;99.90
3980;DHT22;2004;52.452;13.120;2022-12-29T09:55:26;10.50;99.90
3980;DHT22;2004;52.452;13.120;2022-12-29T10:03:24;10.60;99.90
3980;DHT22;2004;52.452;13.120;2022-12-29T10:27:25;11.20;99.90
3980;DHT22;2004;52.452;13.120;2022-12-29T10:35:23;11.40;99.90
3980;DHT22;2004;52.452;13.120;2022-12-29T10:51:43;11.60;99.90
3980;DHT22;2004;52.452;13.120;2022-12-29T10:59:36;11.70;99.90
3980;DHT22;2004;52.452;13.120;2022-12-29T11:07:30;11.70;99.90
3980;DHT22;2004;52.452;13.120;2022-12-29T11:15:21;11.80;99.90
3980;DHT22;2004;52.452;13.120;2022-12-29T11:23:41;11.80;99.90
3980;DHT22;2004;52.452;13.120;2022-12-29T11:31:40;11.80;99.90
3980;DHT22;2004;52.452;13.120;2022-12-29T11:47:32;11.60;99.90
3980;DHT22;2004;52.452;13.120;2022-12-29T11:55:25;11.50;99.90
3980;DHT22;2004;52.452;13.120;2022-12-29T12:03:23;11.40;99.90
3980;DHT22;2004;52.452;13.120;2022-12-29T12:11:19;11.10;99.90
3980;DHT22;2004;52.452;13.120;2022-12-29T12:19:25;10.90;99.90
3980;DHT22;2004;52.452;13.120;2022-12-29T12:35:21;10.50;99.90
3980;DHT22;2004;52.452;13.120;2022-12-29T13:00:23;10.30;99.90
3980;DHT22;2004;52.452;13.120;2022-12-29T13:08:36;10.30;99.90
3980;DHT22;2004;52.452;13.120;2022-12-29T13:41:19;10.30;99.90
3980;DHT22;2004;52.452;13.120;2022-12-29T13:49:16;10.30;99.90
3980;DHT22;2004;52.452;13.120;2022-12-29T13:57:39;10.30;99.90
3980;DHT22;2004;52.452;13.120;2022-12-29T14:05:34;10.30;99.90
3980;DHT22;2004;52.452;13.120;2022-12-29T14:13:26;10.20;99.90
3980;DHT22;2004;52.452;13.120;2022-12-29T14:37:32;10.30;99.90
3980;DHT22;2004;52.452;13.120;2022-12-29T14:45:27;10.30;99.90
3980;DHT22;2004;52.452;13.120;2022-12-29T14:53:47;10.30;99.90
3980;DHT22;2004;52.452;13.120;2022-12-29T15:01:45;10.40;99.90
3980;DHT22;2004;52.452;13.120;2022-12-29T15:09:45;10.50;99.90
3980;DHT22;2004;52.452;13.120;2022-12-29T15:17:39;10.50;99.90
3980;DHT22;2004;52.452;13.120;2022-12-29T15:25:31;10.40;99.90
3980;DHT22;2004;52.452;13.120;2022-12-29T15:33:24;10.30;99.90
3980;DHT22;2004;52.452;13.120;2022-12-29T15:49:17;10.20;99.90
3980;DHT22;2004;52.452;13.120;2022-12-29T16:05:16;10.10;99.90
3980;DHT22;2004;52.452;13.120;2022-12-29T16:13:40;10.20;99.90
3980;DHT22;2004;52.452;13.120;2022-12-29T16:21:34;10.20;99.90
3980;DHT22;2004;52.452;13.120;2022-12-29T16:29:26;10.30;99.90
3980;DHT22;2004;52.452;13.120;2022-12-29T16:37:34;10.40;99.90
3980;DHT22;2004;52.452;13.120;2022-12-29T16:53:42;10.40;99.90
3980;DHT22;2004;52.452;13.120;2022-12-29T17:01:38;10.40;99.90
3980;DHT22;2004;52.452;13.120;2022-12-29T17:09:29;10.40;99.90
3980;DHT22;2004;52.452;13.120;2022-12-29T17:17:35;10.40;99.90
3980;DHT22;2004;52.452;13.120;2022-12-29T17:25:27;10.50;99.90
3980;DHT22;2004;52.452;13.120;2022-12-29T17:33:19;10.50;99.90
3980;DHT22;2004;52.452;13.120;2022-12-29T17:41:13;10.50;99.90
3980;DHT22;2004;52.452;13.120;2022-12-29T17:49:08;10.40;99.90
3980;DHT22;2004;52.452;13.120;2022-12-29T17:56:59;10.40;99.90
3980;DHT22;2004;52.452;13.120;2022-12-29T18:04:50;10.30;99.90
3980;DHT22;2004;52.452;13.120;2022-12-29T18:12:43;10.20;99.90
3980;DHT22;2004;52.452;13.120;2022-12-29T18:20:36;10.20;99.90
3980;DHT22;2004;52.452;13.120;2022-12-29T18:28:27;10.20;99.90
3980;DHT22;2004;52.452;13.120;2022-12-29T18:36:18;10.20;99.90
3980;DHT22;2004;52.452;13.120;2022-12-29T18:44:12;10.20;99.90
3980;DHT22;2004;52.452;13.120;2022-12-29T18:52:02;10.10;99.90
3980;DHT22;2004;52.452;13.120;2022-12-29T18:59:54;10.10;99.90
3980;DHT22;2004;52.452;13.120;2022-12-29T19:07:44;10.00;99.90
3980;DHT22;2004;52.452;13.120;2022-12-29T19:15:36;9.90;99.90
3980;DHT22;2004;52.452;13.120;2022-12-29T19:23:27;9.80;99.90
3980;DHT22;2004;52.452;13.120;2022-12-29T19:31:18;9.70;99.90
3980;DHT22;2004;52.452;13.120;2022-12-29T19:39:10;9.60;99.90
3980;DHT22;2004;52.452;13.120;2022-12-29T19:47:02;9.60;99.90
3980;DHT22;2004;52.452;13.120;2022-12-29T19:54:53;9.60;99.90
3980;DHT22;2004;52.452;13.120;2022-12-29T20:02:44;9.60;99.90
3980;DHT22;2004;52.452;13.120;2022-12-29T20:10:35;9.60;99.90
3980;DHT22;2004;52.452;13.120;2022-12-29T20:18:26;9.60;99.90
3980;DHT22;2004;52.452;13.120;2022-12-29T20:26:27;9.60;99.90
3980;DHT22;2004;52.452;13.120;2022-12-29T20:34:19;9.60;99.90
3980;DHT22;2004;52.452;13.120;2022-12-29T20:42:11;9.60;99.90
3980;DHT22;2004;52.452;13.120;2022-12-29T20:50:01;9.70;99.90
3980;DHT22;2004;52.452;13.120;2022-12-29T20:57:52;9.70;99.90
3980;DHT22;2004;52.452;13.120;2022-12-29T21:05:43;9.70;99.90
3980;DHT22;2004;52.452;13.120;2022-12-29T21:13:33;9.70;99.90
3980;DHT22;2004;52.452;13.120;2022-12-29T21:21:25;9.70;99.90
3980;DHT22;2004;52.452;13.120;2022-12-29T21:29:15;9.60;99.90
3980;DHT22;2004;52.452;13.120;2022-12-29T21:37:06;9.60;99.90
3980;DHT22;2004;52.452;13.120;2022-12-29T21:44:57;9.60;99.90
3980;DHT22;2004;52.452;13.120;2022-12-29T21:53:06;9.50;99.90
3980;DHT22;2004;52.452;13.120;2022-12-29T22:00:56;9.40;99.90
3980;DHT22;2004;52.452;13.120;2022-12-29T22:09:05;9.30;99.90
3980;DHT22;2004;52.452;13.120;2022-12-29T22:17:15;9.20;99.90
3980;DHT22;2004;52.452;13.120;2022-12-29T22:25:06;9.10;99.90
3980;DHT22;2004;52.452;13.120;2022-12-29T22:32:58;9.00;99.90
3980;DHT22;2004;52.452;13.120;2022-12-29T22:40:50;9.00;99.90
3980;DHT22;2004;52.452;13.120;2022-12-29T22:48:41;8.90;99.90
3980;DHT22;2004;52.452;13.120;2022-12-29T22:56:32;8.80;99.90
3980;DHT22;2004;52.452;13.120;2022-12-29T23:04:22;8.80;99.90
3980;DHT22;2004;52.452;13.120;2022-12-29T23:12:13;8.80;99.90
3980;DHT22;2004;52.452;13.120;2022-12-29T23:20:07;8.70;99.90
3980;DHT22;2004;52.452;13.120;2022-12-29T23:27:58;8.80;99.90
3980;DHT22;2004;52.452;13.120;2022-12-29T23:35:50;8.80;99.90
3980;DHT22;2004;52.452;13.120;2022-12-29T23:43:40;8.80;99.90
3980;DHT22;2004;52.452;13.120;2022-12-29T23:51:31;8.70;99.90
3980;DHT22;2004;52.452;13.120;2022-12-29T23:59:21;8.70;99.90
